GMTN/TTU METAR and TAF weather

Enter ICAO airport designator
Station Type Date Time Source
GMTN METAR 2019/10/18 06:00 UTC NOAA

GMTN 180600Z 24014KT CAVOK 18/12 Q1018 NOSIG


Station Type Date Time Source
GMTN Decoded METAR 2019/10/18 06:00 UTC NOAA

Tetuan / Sania Ramel, Morocco (GMTN) 35-35N 005-20W 10M
Oct 18, 2019 - 02:00 AM EDT / 2019.10.18 0600 UTC
Wind: from the WSW (240 degrees) at 16 MPH (14 KT):0
Visibility: greater than 7 mile(s):0
Temperature: 64 F (18 C)
Dew Point: 53 F (12 C)
Relative Humidity: 67%
Pressure (altimeter): 30.06 in. Hg (1018 hPa)
ob: GMTN 180600Z 24014KT CAVOK 18/12 Q1018 NOSIG
cycle: 6

Station Type Date Time Source
GMTN TAF UTC NOAA

Error!

Example: see airport list